createdAt,value
2022-11-23T00:01:33.195Z,18.37
2022-11-23T00:04:03.516Z,18.36
2022-11-23T00:06:31.680Z,18.78
2022-11-23T00:08:59.650Z,18.64
2022-11-23T00:11:28.653Z,18.83
2022-11-23T00:13:56.769Z,18.70
2022-11-23T00:16:27.525Z,18.86
2022-11-23T00:18:57.441Z,18.76
2022-11-23T00:21:27.212Z,18.67
2022-11-23T00:23:54.945Z,18.52
2022-11-23T00:26:23.153Z,18.78
2022-11-23T00:28:51.375Z,18.60
2022-11-23T00:31:23.243Z,18.81
2022-11-23T00:33:53.212Z,18.76
2022-11-23T00:36:22.361Z,18.72
2022-11-23T00:38:50.945Z,18.72
2022-11-23T00:41:21.215Z,18.77
2022-11-23T00:43:49.714Z,18.59
2022-11-23T00:46:19.096Z,18.82
2022-11-23T00:48:50.480Z,18.26
2022-11-23T00:51:23.343Z,18.83
2022-11-23T00:53:52.155Z,18.84
2022-11-23T00:56:20.917Z,18.81
2022-11-23T00:58:53.581Z,18.63
2022-11-23T01:01:25.625Z,18.66
2022-11-23T01:03:59.783Z,18.75
2022-11-23T01:06:33.156Z,18.56
2022-11-23T01:09:04.701Z,18.75
2022-11-23T01:11:33.273Z,18.75
2022-11-23T01:14:02.080Z,18.83
2022-11-23T01:16:32.705Z,18.70
2022-11-23T01:19:20.665Z,18.87
2022-11-23T01:21:50.547Z,18.73
2022-11-23T01:24:21.394Z,18.83
2022-11-23T01:26:53.696Z,18.84
2022-11-23T01:29:22.953Z,18.87
2022-11-23T01:31:50.778Z,18.88
2022-11-23T01:34:18.741Z,18.88
2022-11-23T01:36:49.331Z,18.60
2022-11-23T01:39:17.435Z,18.85
2022-11-23T01:41:49.196Z,18.84
2022-11-23T01:44:33.994Z,18.86
2022-11-23T01:47:08.321Z,18.87
2022-11-23T01:49:49.760Z,18.87
2022-11-23T01:52:21.948Z,18.49
2022-11-23T01:54:54.682Z,18.80
2022-11-23T01:57:36.191Z,18.67
2022-11-23T02:00:04.455Z,18.58
2022-11-23T02:03:04.893Z,18.63
2022-11-23T02:05:43.030Z,18.28
2022-11-23T02:08:12.016Z,18.59
2022-11-23T02:10:39.726Z,18.12
2022-11-23T02:13:13.112Z,18.73
2022-11-23T02:15:41.328Z,18.72
2022-11-23T02:18:21.206Z,18.33
2022-11-23T02:20:50.926Z,18.81
2022-11-23T02:23:34.125Z,18.30
2022-11-23T02:26:08.961Z,18.76
2022-11-23T02:28:42.241Z,18.76
2022-11-23T02:31:10.179Z,18.56
2022-11-23T02:33:39.615Z,18.51
2022-11-23T02:36:32.416Z,18.77
2022-11-23T02:39:17.324Z,18.66
2022-11-23T02:41:57.318Z,18.66
2022-11-23T02:47:20.976Z,18.76
2022-11-23T02:49:49.823Z,18.76
2022-11-23T02:52:19.320Z,18.78
2022-11-23T02:54:47.338Z,18.56
2022-11-23T02:57:15.543Z,18.54
2022-11-23T02:59:47.620Z,18.16
2022-11-23T03:02:15.261Z,18.62
2022-11-23T03:04:42.993Z,18.78
2022-11-23T03:07:10.738Z,18.80
2022-11-23T03:09:39.779Z,18.73
2022-11-23T03:12:07.680Z,18.80
2022-11-23T03:14:35.402Z,18.50
2022-11-23T03:17:03.251Z,18.47
2022-11-23T03:19:36.277Z,18.37
2022-11-23T03:22:04.479Z,18.85
2022-11-23T03:24:33.265Z,18.82
2022-11-23T03:27:03.837Z,18.84
2022-11-23T03:29:31.842Z,18.77
2022-11-23T03:32:03.528Z,18.59
2022-11-23T03:34:31.346Z,18.82
2022-11-23T03:36:58.971Z,18.91
2022-11-23T03:39:26.804Z,18.76
2022-11-23T03:42:17.331Z,18.96
2022-11-23T03:44:46.530Z,18.97
2022-11-23T03:47:16.622Z,18.81
2022-11-23T03:49:44.645Z,18.96
2022-11-23T03:52:12.658Z,18.85
2022-11-23T03:54:40.312Z,18.98
2022-11-23T03:57:09.610Z,18.89
2022-11-23T03:59:38.364Z,18.97
2022-11-23T04:02:08.236Z,18.95
2022-11-23T04:04:48.362Z,18.86
2022-11-23T04:07:47.880Z,18.58
2022-11-23T04:10:17.048Z,18.44
2022-11-23T04:13:00.028Z,18.78
2022-11-23T04:15:29.034Z,18.91
2022-11-23T04:17:56.890Z,18.80
2022-11-23T04:20:24.747Z,18.58
2022-11-23T04:22:52.539Z,18.50
2022-11-23T04:25:20.252Z,18.80
2022-11-23T04:27:51.082Z,18.57
2022-11-23T04:30:19.124Z,18.87
2022-11-23T04:32:48.506Z,18.83
2022-11-23T04:35:16.329Z,18.78
2022-11-23T04:37:47.466Z,18.49
2022-11-23T04:40:15.903Z,18.85
2022-11-23T04:42:53.847Z,18.85
2022-11-23T04:45:24.563Z,18.57
2022-11-23T04:47:55.019Z,18.73
2022-11-23T04:50:25.274Z,18.88
2022-11-23T04:52:56.008Z,18.64
2022-11-23T04:55:30.524Z,18.71
2022-11-23T04:58:02.358Z,18.49
2022-11-23T05:00:32.551Z,18.77
2022-11-23T05:03:01.701Z,18.63
2022-11-23T05:05:33.703Z,18.94
2022-11-23T05:08:03.198Z,18.71
2022-11-23T05:10:49.350Z,18.78
2022-11-23T05:13:17.575Z,18.94
2022-11-23T05:15:46.318Z,18.98
2022-11-23T05:18:18.816Z,18.91
2022-11-23T05:20:47.255Z,18.76
2022-11-23T05:23:16.747Z,18.84
2022-11-23T05:25:46.102Z,18.88
2022-11-23T05:28:39.671Z,19.06
2022-11-23T05:31:09.530Z,19.02
2022-11-23T05:33:37.986Z,19.09
2022-11-23T05:36:08.860Z,19.00
2022-11-23T05:38:40.279Z,19.02
2022-11-23T05:41:13.889Z,18.83
2022-11-23T05:43:43.749Z,18.69
2022-11-23T05:46:16.369Z,19.22
2022-11-23T05:48:45.871Z,19.02
2022-11-23T05:51:14.396Z,19.30
2022-11-23T05:53:46.181Z,19.14
2022-11-23T05:56:38.816Z,19.04
2022-11-23T05:59:16.204Z,18.96
2022-11-23T06:01:49.186Z,18.94
2022-11-23T06:04:27.687Z,19.17
2022-11-23T06:07:01.331Z,19.42
2022-11-23T06:09:37.120Z,19.47
2022-11-23T06:12:09.515Z,19.47
2022-11-23T06:14:37.599Z,19.23
2022-11-23T06:17:05.325Z,19.54
2022-11-23T06:19:53.205Z,19.58
2022-11-23T06:22:20.952Z,19.32
2022-11-23T06:24:59.137Z,19.43
2022-11-23T06:27:38.059Z,19.61
2022-11-23T06:30:14.928Z,19.40
2022-11-23T06:32:43.217Z,19.42
2022-11-23T06:35:11.203Z,19.42
2022-11-23T06:37:41.624Z,19.66
2022-11-23T06:40:12.600Z,19.62
2022-11-23T06:42:41.416Z,19.70
2022-11-23T06:45:18.989Z,19.74
2022-11-23T06:47:48.648Z,19.61
2022-11-23T06:50:16.411Z,19.76
2022-11-23T06:52:46.428Z,19.58
2022-11-23T06:55:14.614Z,19.51
2022-11-23T06:57:42.481Z,19.63
2022-11-23T07:00:12.550Z,19.62
2022-11-23T07:02:40.448Z,19.82
2022-11-23T07:05:08.962Z,19.84
2022-11-23T07:07:38.814Z,19.59
2022-11-23T07:10:13.803Z,19.59
2022-11-23T07:12:47.022Z,19.84
2022-11-23T07:15:17.476Z,19.79
2022-11-23T07:17:46.105Z,19.79
2022-11-23T07:20:14.299Z,19.56
2022-11-23T07:22:42.207Z,19.45
2022-11-23T07:25:11.514Z,19.71
2022-11-23T07:27:39.277Z,19.35
2022-11-23T07:30:09.189Z,19.79
2022-11-23T07:32:37.086Z,19.80
2022-11-23T07:35:05.135Z,19.73
2022-11-23T07:37:36.936Z,19.64
2022-11-23T07:40:06.263Z,19.61
2022-11-23T07:42:41.388Z,19.61
2022-11-23T07:45:13.493Z,19.88
2022-11-23T07:47:45.839Z,19.89
2022-11-23T07:50:14.284Z,19.94
2022-11-23T07:52:42.194Z,19.64
2022-11-23T07:55:10.033Z,19.83
2022-11-23T07:57:37.648Z,19.97
2022-11-23T08:00:06.411Z,20.09
2022-11-23T08:02:52.824Z,20.08
2022-11-23T08:05:26.719Z,19.87
2022-11-23T08:08:01.597Z,20.06
2022-11-23T08:10:31.820Z,20.19
2022-11-23T08:13:04.675Z,20.18
2022-11-23T08:15:32.798Z,20.15
2022-11-23T08:18:03.280Z,20.12
2022-11-23T08:20:31.789Z,20.13
2022-11-23T08:22:59.482Z,20.13
2022-11-23T08:25:29.417Z,19.61
2022-11-23T08:28:02.305Z,19.97
2022-11-23T08:30:31.762Z,20.11
2022-11-23T08:33:00.039Z,20.12
2022-11-23T08:35:27.899Z,20.03
2022-11-23T08:37:55.550Z,19.82
2022-11-23T08:40:25.678Z,19.71
2022-11-23T08:42:54.546Z,20.05
2022-11-23T08:45:22.516Z,20.07
2022-11-23T08:47:51.202Z,20.06
2022-11-23T08:50:22.109Z,19.74
2022-11-23T08:52:58.432Z,20.18
2022-11-23T08:55:27.696Z,19.66
2022-11-23T08:57:58.929Z,20.21
2022-11-23T09:00:27.704Z,20.25
2022-11-23T09:02:55.605Z,20.18
2022-11-23T09:05:23.418Z,20.30
2022-11-23T09:07:51.184Z,20.01
2022-11-23T09:10:19.475Z,20.06
2022-11-23T09:12:48.027Z,20.04
2022-11-23T09:15:16.079Z,20.38
2022-11-23T09:17:44.250Z,20.39
2022-11-23T09:20:13.090Z,19.92
2022-11-23T09:22:40.903Z,20.33
2022-11-23T09:25:10.582Z,20.09
2022-11-23T09:27:39.110Z,20.27
2022-11-23T09:30:07.379Z,20.44
2022-11-23T09:32:35.163Z,20.01
2022-11-23T09:35:03.153Z,20.48
2022-11-23T09:37:30.825Z,20.49
2022-11-23T09:39:58.822Z,20.50
2022-11-23T09:42:54.294Z,20.49
2022-11-23T09:45:43.353Z,20.42
2022-11-23T09:48:13.780Z,20.55
2022-11-23T09:50:53.366Z,20.55
2022-11-23T09:53:29.490Z,20.55
2022-11-23T09:55:58.263Z,20.57
2022-11-23T09:58:33.482Z,20.28
2022-11-23T10:01:05.532Z,20.48
2022-11-23T10:03:48.260Z,20.35
2022-11-23T10:06:29.674Z,20.58
2022-11-23T10:08:57.420Z,20.56
2022-11-23T10:12:00.355Z,20.56
2022-11-23T10:14:56.453Z,20.56
2022-11-23T10:17:45.866Z,20.58
2022-11-23T10:20:38.040Z,20.60
2022-11-23T10:23:21.475Z,20.62
2022-11-23T10:25:51.991Z,20.65
2022-11-23T10:28:22.505Z,20.65
2022-11-23T10:31:15.182Z,20.63
2022-11-23T10:34:11.164Z,20.70
2022-11-23T10:36:39.819Z,20.71
2022-11-23T10:39:25.820Z,20.28
2022-11-23T10:41:59.387Z,20.62
2022-11-23T10:44:38.386Z,20.79
2022-11-23T10:47:06.161Z,20.79
2022-11-23T10:49:35.352Z,20.84
2022-11-23T10:52:06.867Z,20.72
2022-11-23T10:54:56.488Z,20.75
2022-11-23T10:57:42.404Z,20.90
2022-11-23T11:00:13.378Z,20.88
2022-11-23T11:02:54.435Z,20.84
2022-11-23T11:08:30.863Z,20.91
2022-11-23T11:11:00.590Z,20.93
2022-11-23T11:13:32.698Z,20.93
2022-11-23T11:16:05.380Z,20.84
2022-11-23T11:18:35.919Z,20.99
2022-11-23T11:21:32.797Z,20.84
2022-11-23T11:24:00.433Z,21.00
2022-11-23T11:26:30.473Z,21.00
2022-11-23T11:29:02.383Z,21.03
2022-11-23T11:32:00.970Z,21.02
2022-11-23T11:34:46.275Z,21.05
2022-11-23T11:37:48.326Z,21.07
2022-11-23T11:40:21.996Z,21.07
2022-11-23T11:42:57.005Z,20.88
2022-11-23T11:46:13.202Z,21.08
2022-11-23T11:48:45.216Z,21.06
2022-11-23T11:51:38.300Z,20.79
2022-11-23T11:54:40.118Z,21.09
2022-11-23T11:57:20.926Z,20.84
2022-11-23T11:59:53.212Z,21.10
2022-11-23T12:02:23.654Z,20.64
2022-11-23T12:05:25.581Z,21.14
2022-11-23T12:08:00.013Z,21.11
2022-11-23T12:10:34.279Z,20.93
2022-11-23T12:13:01.921Z,21.01
2022-11-23T12:15:49.581Z,21.03
2022-11-23T12:18:45.740Z,21.25
2022-11-23T12:21:22.792Z,21.31
2022-11-23T12:24:00.489Z,21.31
2022-11-23T12:26:31.209Z,21.32
2022-11-23T12:29:26.766Z,21.05
2022-11-23T12:32:07.843Z,21.28
2022-11-23T12:35:06.027Z,21.38
2022-11-23T12:37:58.989Z,21.38
2022-11-23T12:40:46.936Z,21.37
2022-11-23T12:43:36.607Z,21.39
2022-11-23T12:46:10.847Z,21.41
2022-11-23T12:48:55.898Z,21.42
2022-11-23T12:51:57.532Z,21.40
2022-11-23T12:54:34.869Z,21.31
2022-11-23T12:57:14.153Z,21.24
2022-11-23T13:00:04.993Z,21.45
2022-11-23T13:02:48.713Z,21.45
2022-11-23T13:05:31.789Z,21.47
2022-11-23T13:08:11.553Z,21.50
2022-11-23T13:11:01.796Z,21.20
2022-11-23T13:13:51.369Z,21.55
2022-11-23T13:16:33.684Z,21.54
2022-11-23T13:19:33.964Z,21.55
2022-11-23T13:22:05.459Z,21.28
2022-11-23T13:24:36.169Z,21.56
2022-11-23T13:27:13.980Z,21.58
2022-11-23T13:29:51.535Z,21.60
2022-11-23T13:32:46.224Z,21.63
2022-11-23T13:35:16.887Z,21.63
2022-11-23T13:38:13.836Z,20.99
2022-11-23T13:40:43.902Z,21.64
2022-11-23T13:43:27.164Z,21.67
2022-11-23T13:46:16.817Z,21.70
2022-11-23T13:48:56.731Z,21.66
2022-11-23T13:51:33.812Z,21.66
2022-11-23T13:54:19.714Z,21.68
2022-11-23T13:57:01.670Z,21.22
2022-11-23T13:59:32.366Z,21.74
2022-11-23T14:02:11.127Z,21.76
2022-11-23T14:04:39.050Z,21.76
2022-11-23T14:07:26.693Z,21.75
2022-11-23T14:10:17.104Z,21.75
2022-11-23T14:13:19.559Z,21.67
2022-11-23T14:15:57.853Z,21.67
2022-11-23T14:18:38.451Z,21.39
2022-11-23T14:21:15.044Z,21.75
2022-11-23T14:24:23.525Z,21.47
2022-11-23T14:29:28.787Z,21.66
2022-11-23T14:32:18.242Z,21.75
2022-11-23T14:35:10.983Z,21.75
2022-11-23T14:38:09.358Z,21.68
2022-11-23T14:41:12.471Z,21.70
2022-11-23T14:43:42.737Z,21.69
2022-11-23T14:46:20.425Z,21.27
2022-11-23T14:48:49.783Z,21.64
2022-11-23T14:51:26.883Z,21.32
2022-11-23T14:53:55.759Z,21.61
2022-11-23T14:56:23.314Z,21.59
2022-11-23T14:58:51.744Z,21.26
2022-11-23T15:01:23.214Z,21.45
2022-11-23T15:04:10.959Z,21.50
2022-11-23T15:06:47.472Z,21.46
2022-11-23T15:09:57.658Z,21.32
2022-11-23T15:12:28.378Z,21.53
2022-11-23T15:14:59.784Z,21.42
2022-11-23T15:17:27.628Z,21.21
2022-11-23T15:20:04.659Z,21.21
2022-11-23T15:22:35.116Z,21.34
2022-11-23T15:25:10.417Z,21.38
2022-11-23T15:27:41.722Z,21.45
2022-11-23T15:30:22.449Z,21.26
2022-11-23T15:33:04.626Z,21.44
2022-11-23T15:35:35.734Z,21.22
2022-11-23T15:38:06.883Z,21.22
2022-11-23T15:40:37.915Z,21.40
2022-11-23T15:43:05.621Z,21.01
2022-11-23T15:45:35.097Z,21.33
2022-11-23T15:48:05.477Z,21.17
2022-11-23T15:50:34.419Z,21.31
2022-11-23T15:53:09.945Z,21.09
2022-11-23T15:55:37.621Z,21.29
2022-11-23T15:58:08.245Z,21.28
2022-11-23T16:00:36.968Z,21.27
2022-11-23T16:03:34.418Z,21.28
2022-11-23T16:06:15.015Z,21.24
2022-11-23T16:08:42.581Z,20.74
2022-11-23T16:11:30.985Z,21.23
2022-11-23T16:14:20.381Z,21.22
2022-11-23T16:16:58.916Z,20.99
2022-11-23T16:19:32.400Z,21.20
2022-11-23T16:22:05.119Z,21.22
2022-11-23T16:24:35.133Z,20.86
2022-11-23T16:27:13.985Z,21.16
2022-11-23T16:29:42.282Z,21.19
2022-11-23T16:32:22.035Z,21.19
2022-11-23T16:34:50.168Z,21.05
2022-11-23T16:37:18.418Z,20.87
2022-11-23T16:39:46.606Z,20.72
2022-11-23T16:42:17.768Z,21.00
2022-11-23T16:44:45.599Z,20.74
2022-11-23T16:47:27.164Z,20.90
2022-11-23T16:49:55.089Z,21.20
2022-11-23T16:52:24.740Z,21.06
2022-11-23T16:54:53.425Z,21.15
2022-11-23T16:57:29.068Z,21.22
2022-11-23T16:59:58.839Z,21.10
2022-11-23T17:02:26.715Z,21.24
2022-11-23T17:04:54.911Z,21.05
2022-11-23T17:07:22.734Z,21.04
2022-11-23T17:09:50.534Z,21.18
2022-11-23T17:12:20.460Z,20.87
2022-11-23T17:14:49.638Z,20.90
2022-11-23T17:17:22.245Z,20.98
2022-11-23T17:19:54.291Z,21.25
2022-11-23T17:22:23.186Z,20.91
2022-11-23T17:24:53.775Z,21.21
2022-11-23T17:27:25.551Z,21.22
2022-11-23T17:29:59.329Z,21.05
2022-11-23T17:32:28.791Z,21.05
2022-11-23T17:34:57.797Z,21.11
2022-11-23T17:37:26.949Z,21.10
2022-11-23T17:39:55.750Z,20.94
2022-11-23T17:42:23.903Z,20.85
2022-11-23T17:44:52.961Z,21.14
2022-11-23T17:47:30.938Z,21.11
2022-11-23T17:50:01.796Z,21.28
2022-11-23T17:52:33.391Z,21.00
2022-11-23T17:55:01.347Z,21.20
2022-11-23T17:57:37.990Z,21.30
2022-11-23T18:00:14.579Z,21.30
2022-11-23T18:02:42.301Z,21.29
2022-11-23T18:05:12.341Z,21.30
2022-11-23T18:07:44.050Z,21.22
2022-11-23T18:10:13.932Z,21.27
2022-11-23T18:12:41.799Z,21.29
2022-11-23T18:15:10.106Z,20.94
2022-11-23T18:17:38.185Z,21.00
2022-11-23T18:20:08.372Z,21.26
2022-11-23T18:22:36.284Z,21.34
2022-11-23T18:25:04.139Z,21.16
2022-11-23T18:27:32.036Z,21.37
2022-11-23T18:29:59.882Z,21.24
2022-11-23T18:32:27.526Z,21.36
2022-11-23T18:34:55.213Z,20.89
2022-11-23T18:37:23.075Z,21.12
2022-11-23T18:39:50.972Z,20.89
2022-11-23T18:42:18.912Z,21.10
2022-11-23T18:44:46.681Z,21.31
2022-11-23T18:47:14.333Z,21.29
2022-11-23T18:49:42.124Z,21.04
2022-11-23T18:52:13.992Z,21.27
2022-11-23T18:54:41.754Z,21.27
2022-11-23T18:57:10.075Z,20.97
2022-11-23T19:02:25.862Z,21.21
2022-11-23T19:04:53.669Z,21.09
2022-11-23T19:07:26.629Z,20.82
2022-11-23T19:09:55.068Z,21.20
2022-11-23T19:12:22.983Z,21.01
2022-11-23T19:14:50.783Z,21.19
2022-11-23T19:17:18.461Z,21.08
2022-11-23T19:19:46.262Z,21.09
2022-11-23T19:22:13.967Z,21.13
2022-11-23T19:24:41.819Z,20.88
2022-11-23T19:27:10.007Z,20.58
2022-11-23T19:29:38.140Z,21.13
2022-11-23T19:32:06.197Z,21.05
2022-11-23T19:34:33.930Z,21.06
2022-11-23T19:37:01.965Z,20.89
2022-11-23T19:39:31.231Z,20.91
2022-11-23T19:41:59.802Z,21.30
2022-11-23T19:44:27.900Z,21.06
2022-11-23T19:46:55.769Z,21.23
2022-11-23T19:49:23.653Z,21.16
2022-11-23T19:51:53.642Z,21.18
2022-11-23T19:54:21.278Z,20.98
2022-11-23T19:56:52.261Z,21.29
2022-11-23T19:59:20.235Z,21.16
2022-11-23T20:01:48.154Z,21.15
2022-11-23T20:04:16.072Z,21.25
2022-11-23T20:06:44.113Z,21.29
2022-11-23T20:09:23.065Z,21.18
2022-11-23T20:11:51.695Z,21.05
2022-11-23T20:14:22.676Z,21.00
2022-11-23T20:16:51.827Z,21.09
2022-11-23T20:19:19.594Z,21.05
2022-11-23T20:21:47.522Z,21.27
2022-11-23T20:24:15.313Z,21.11
2022-11-23T20:26:43.607Z,21.23
2022-11-23T20:29:11.715Z,21.21
2022-11-23T20:31:39.694Z,21.20
2022-11-23T20:34:10.010Z,21.11
2022-11-23T20:36:41.036Z,21.11
2022-11-23T20:39:11.149Z,21.20
2022-11-23T20:41:39.268Z,21.12
2022-11-23T20:44:11.587Z,21.00
2022-11-23T20:49:28.035Z,21.18
2022-11-23T20:51:55.741Z,20.85
2022-11-23T20:54:23.628Z,21.22
2022-11-23T20:56:51.407Z,21.28
2022-11-23T20:59:20.002Z,21.08
2022-11-23T21:01:48.160Z,21.29
2022-11-23T21:04:16.011Z,21.26
2022-11-23T21:06:43.986Z,21.25
2022-11-23T21:09:12.351Z,21.07
2022-11-23T21:11:58.573Z,21.15
2022-11-23T21:14:31.724Z,21.04
2022-11-23T21:17:01.090Z,21.10
2022-11-23T21:19:34.565Z,21.26
2022-11-23T21:22:05.410Z,21.26
2022-11-23T21:24:35.715Z,20.93
2022-11-23T21:27:05.576Z,21.15
2022-11-23T21:29:33.758Z,21.23
2022-11-23T21:32:04.428Z,20.89
2022-11-23T21:34:32.972Z,21.13
2022-11-23T21:37:01.147Z,21.26
2022-11-23T21:39:31.170Z,21.18
2022-11-23T21:41:59.149Z,21.07
2022-11-23T21:44:26.841Z,21.24
2022-11-23T21:46:54.784Z,21.18
2022-11-23T21:49:22.648Z,21.27
2022-11-23T21:51:50.482Z,21.26
2022-11-23T21:54:18.264Z,21.14
2022-11-23T21:56:46.563Z,20.94
2022-11-23T21:59:14.606Z,21.12
2022-11-23T22:01:42.832Z,21.29
2022-11-23T22:04:13.425Z,21.06
2022-11-23T22:06:42.341Z,21.11
2022-11-23T22:09:11.708Z,21.28
2022-11-23T22:11:41.830Z,21.21
2022-11-23T22:14:16.323Z,21.24
2022-11-23T22:16:54.472Z,21.25
2022-11-23T22:19:22.665Z,21.24
2022-11-23T22:21:50.582Z,21.17
2022-11-23T22:24:19.744Z,21.23
2022-11-23T22:26:48.059Z,20.72
2022-11-23T22:29:16.144Z,21.20
2022-11-23T22:31:44.250Z,21.19
2022-11-23T22:34:13.541Z,21.18
2022-11-23T22:36:42.271Z,21.19
2022-11-23T22:39:10.439Z,21.11
2022-11-23T22:41:39.550Z,21.13
2022-11-23T22:44:09.533Z,21.19
2022-11-23T22:46:39.601Z,21.10
2022-11-23T22:49:07.514Z,21.10
2022-11-23T22:51:36.773Z,20.73
2022-11-23T22:54:04.825Z,21.17
2022-11-23T22:56:32.825Z,21.17
2022-11-23T22:59:01.021Z,21.04
2022-11-23T23:01:31.009Z,21.10
2022-11-23T23:04:01.619Z,21.09
2022-11-23T23:06:34.836Z,21.18
2022-11-23T23:09:05.093Z,21.15
2022-11-23T23:11:34.628Z,21.04
2022-11-23T23:14:02.396Z,21.12
2022-11-23T23:16:30.456Z,20.69
2022-11-23T23:18:59.549Z,21.11
2022-11-23T23:21:28.706Z,21.00
2022-11-23T23:23:58.978Z,21.13
2022-11-23T23:26:28.571Z,20.92
2022-11-23T23:28:59.282Z,21.05
2022-11-23T23:31:28.324Z,21.11
2022-11-23T23:33:57.367Z,21.10
2022-11-23T23:36:25.030Z,21.03
2022-11-23T23:38:52.881Z,20.90
2022-11-23T23:41:20.936Z,21.00
2022-11-23T23:43:48.778Z,21.04
2022-11-23T23:46:16.742Z,21.06
2022-11-23T23:48:45.080Z,20.71
2022-11-23T23:51:24.064Z,21.00
2022-11-23T23:53:52.903Z,20.94
2022-11-23T23:56:23.764Z,21.01
2022-11-23T23:58:52.191Z,21.07
